General Leobardo C Ruiz International Airport
MMZC : now visible

Airfield :











YOU CAN JOIN US ON...

 
LOGIN :

Register | Disclaimer

   EN    FR    IT 

 









Legend :    VFR   Marginal VFR   IFR   Intensive IFR   Very Intensive IFR
Visi :
Ceiling :
>= 8 km
>= 3000ft
5 to 8 km
1000 to 3000 ft
1500m to 5 km
500 to 1000 ft
800 to 1500m
200 to 500 ft
< 800m
< 200 ft
Symbols :   Thunderstorms  Fog  Heavy snow  Heavy precipitations  Wind > 20 kt






- Airport Elevation : 7141 ft
- IATA code : ZCL


MMZC - General Leobardo C Ruiz International

CURRENT METAR :
  • 152246Z 08010KT 10SM SKC 27/05 A3017

EXPIRED METARs :
  • 152140Z 08010KT 10SM SKC 26/06 A3019
  • 152040Z 08010KT 10SM FEW030 26/06 A3019 RMK 8/100

TAF TAF MMZC
Valid from the 15 at 18:00 until the 17 at 00:00 UTC


151658Z 1518/1624 20010KT P6SM SCT030 TX26/1521Z TN12/1612Z
FM160300 00000KT P6SM SKC
FM162000 20015KT P6SM SCT030



MET'MAP, your aeronautical weather chart ! - Copyright ORBIFLY December 2007 - Disclaimer

ORBIFLY MET'MAP TEAM :

Programming & Development : Alexandra Zaïnal
Concept & Development : Baudouin d'Aumeries
Co-Development & Prog : Marc-Olivier Méhu
Technical & hardware support : Manuel Goepfert

Contact : metmap@orbifly.com




SOURCES & CREDITS :

   NOAA       Earth
Advisory